Airport Name : Mount Gambier

Other Name : Mount Gambier

ICAO : YMTG

IATA : MGB

FAA :

Latitude : -37.745556

Longitude : 140.785278

Country : Australia

Local Date and Time : 23 Sep 2021 20:46

 

TAF (Terminal Aerodrome Forecast)

 

METAR (METeorological Aerodrome Report)

YMTG 231100Z AUTO 33010KT 9999 // SCT020 BKN026 OVC036 12/10 Q1015

YMTG 231000Z AUTO 32007KT 9999 // SCT022 OVC034 12/10 Q1015

YMTG 230900Z AUTO 32011KT 9999 // SCT022 SCT026 OVC035 13/10 Q1015

YMTG 230800Z AUTO 30012KT 9999 // SCT027 BKN033 14/10 Q1015

To Charter a Jet Click here.